createdAt,value
2019-01-05T00:00:01.320Z,5.18
2019-01-05T00:01:01.305Z,5.15
2019-01-05T00:02:01.259Z,5.20
2019-01-05T00:03:01.243Z,5.22
2019-01-05T00:04:01.212Z,5.20
2019-01-05T00:05:01.224Z,5.21
2019-01-05T00:06:01.194Z,5.13
2019-01-05T00:07:01.157Z,5.21
2019-01-05T00:08:01.130Z,5.20
2019-01-05T00:09:01.118Z,5.15
2019-01-05T00:10:01.086Z,5.21
2019-01-05T00:11:01.062Z,5.18
2019-01-05T00:12:01.072Z,5.21
2019-01-05T00:13:01.020Z,5.28
2019-01-05T00:14:00.996Z,5.21
2019-01-05T00:15:00.975Z,5.22
2019-01-05T00:16:00.956Z,5.36
2019-01-05T00:17:00.938Z,5.35
2019-01-05T00:18:00.922Z,5.28
2019-01-05T00:19:00.891Z,5.35
2019-01-05T00:20:00.864Z,5.30
2019-01-05T00:21:00.843Z,5.31
2019-01-05T00:22:00.846Z,5.28
2019-01-05T00:23:00.827Z,5.30
2019-01-05T00:24:00.783Z,5.31
2019-01-05T00:25:00.781Z,5.30
2019-01-05T00:26:00.733Z,5.31
2019-01-05T00:27:00.713Z,5.33
2019-01-05T00:28:00.685Z,5.33
2019-01-05T00:29:00.681Z,5.31
2019-01-05T00:30:00.645Z,5.31
2019-01-05T00:31:00.623Z,5.35
2019-01-05T00:32:00.601Z,5.39
2019-01-05T00:33:00.604Z,5.35
2019-01-05T00:34:00.559Z,5.33
2019-01-05T00:35:00.548Z,5.45
2019-01-05T00:36:00.513Z,5.40
2019-01-05T00:37:00.493Z,5.40
2019-01-05T00:38:00.468Z,5.36
2019-01-05T00:39:00.447Z,5.33
2019-01-05T00:40:00.429Z,5.45
2019-01-05T00:41:00.417Z,5.38
2019-01-05T00:42:00.377Z,5.39
2019-01-05T00:43:01.217Z,5.48
2019-01-05T00:44:00.353Z,5.40
2019-01-05T00:45:00.315Z,5.49
2019-01-05T00:46:00.309Z,5.48
2019-01-05T00:47:00.271Z,5.46
2019-01-05T00:48:00.251Z,5.51
2019-01-05T00:49:00.225Z,5.56
2019-01-05T00:50:00.211Z,5.57
2019-01-05T00:51:00.196Z,5.53
2019-01-05T00:52:00.196Z,5.51
2019-01-05T00:53:00.143Z,5.57
2019-01-05T00:54:00.123Z,5.51
2019-01-05T00:55:00.157Z,5.61
2019-01-05T00:56:00.074Z,5.63
2019-01-05T00:57:00.068Z,5.54
2019-01-05T00:58:00.042Z,5.65
2019-01-05T00:59:00.011Z,5.54
2019-01-05T00:59:59.986Z,5.67
2019-01-05T01:00:59.969Z,5.60
2019-01-05T01:01:59.963Z,5.56
2019-01-05T01:02:59.920Z,5.63
2019-01-05T01:03:59.916Z,5.61
2019-01-05T01:04:59.880Z,5.61
2019-01-05T01:05:59.857Z,5.60
2019-01-05T01:06:59.834Z,5.63
2019-01-05T01:07:59.817Z,5.64
2019-01-05T01:08:59.818Z,5.53
2019-01-05T01:09:59.764Z,5.60
2019-01-05T01:10:59.749Z,5.63
2019-01-05T01:11:59.723Z,5.71
2019-01-05T01:12:59.703Z,5.65
2019-01-05T01:13:59.682Z,5.61
2019-01-05T01:14:59.676Z,5.61
2019-01-05T01:15:59.636Z,5.65
2019-01-05T01:18:41.655Z,5.63
2019-01-05T01:19:41.620Z,5.67
2019-01-05T01:20:41.622Z,5.63
2019-01-05T01:21:41.584Z,5.63
2019-01-05T01:22:41.564Z,5.67
2019-01-05T01:23:41.541Z,5.68
2019-01-05T01:24:41.518Z,5.72
2019-01-05T01:25:41.491Z,5.64
2019-01-05T01:26:41.487Z,5.68
2019-01-05T01:27:41.449Z,5.63
2019-01-05T01:28:41.428Z,5.71
2019-01-05T01:29:41.408Z,5.67
2019-01-05T01:30:41.406Z,5.75
2019-01-05T01:31:41.384Z,5.67
2019-01-05T01:32:41.342Z,5.72
2019-01-05T01:33:41.319Z,5.75
2019-01-05T01:34:41.298Z,5.74
2019-01-05T01:35:41.278Z,5.71
2019-01-05T01:36:41.273Z,5.76
2019-01-05T01:37:41.243Z,5.75
2019-01-05T01:38:41.216Z,5.71
2019-01-05T01:39:41.190Z,5.78
2019-01-05T01:40:41.177Z,5.75
2019-01-05T01:41:41.144Z,5.79
2019-01-05T01:42:41.143Z,5.81
2019-01-05T01:43:41.104Z,5.76
2019-01-05T01:44:41.083Z,5.81
2019-01-05T01:47:23.150Z,5.79
2019-01-05T01:48:23.148Z,5.75
2019-01-05T01:49:23.125Z,5.82
2019-01-05T01:50:23.087Z,5.83
2019-01-05T01:51:23.063Z,5.82
2019-01-05T01:52:23.044Z,5.79
2019-01-05T01:53:23.022Z,5.85
2019-01-05T01:54:22.995Z,5.82
2019-01-05T01:55:22.994Z,5.83
2019-01-05T01:56:22.954Z,5.91
2019-01-05T01:57:22.957Z,5.78
2019-01-05T01:58:22.908Z,5.82
2019-01-05T01:59:22.890Z,5.79
2019-01-05T02:00:22.886Z,5.82
2019-01-05T02:01:22.843Z,5.78
2019-01-05T02:02:22.828Z,5.82
2019-01-05T02:03:22.815Z,5.96
2019-01-05T02:04:22.781Z,5.96
2019-01-05T02:05:22.765Z,5.90
2019-01-05T02:06:22.736Z,5.91
2019-01-05T02:07:22.715Z,5.86
2019-01-05T02:08:22.710Z,5.81
2019-01-05T02:09:22.670Z,5.81
2019-01-05T02:10:22.656Z,5.94
2019-01-05T02:11:22.621Z,5.94
2019-01-05T02:12:22.602Z,5.96
2019-01-05T02:13:22.586Z,5.91
2019-01-05T02:14:22.577Z,5.97
2019-01-05T02:15:22.546Z,5.94
2019-01-05T02:16:22.515Z,5.94
2019-01-05T02:17:22.504Z,5.85
2019-01-05T02:18:22.472Z,5.83
2019-01-05T02:19:22.465Z,5.93
2019-01-05T02:20:22.434Z,5.93
2019-01-05T02:21:22.423Z,5.86
2019-01-05T02:22:22.392Z,5.94
2019-01-05T02:23:22.368Z,5.93
2019-01-05T02:24:22.359Z,5.90
2019-01-05T02:25:22.317Z,5.94
2019-01-05T02:26:22.309Z,6.00
2019-01-05T02:27:22.271Z,5.99
2019-01-05T02:28:22.256Z,5.96
2019-01-05T02:29:22.248Z,5.99
2019-01-05T02:30:22.233Z,5.99
2019-01-05T02:31:22.223Z,5.90
2019-01-05T02:32:22.170Z,6.01
2019-01-05T02:33:22.148Z,5.97
2019-01-05T02:34:22.131Z,5.97
2019-01-05T02:35:22.116Z,5.97
2019-01-05T02:36:22.091Z,5.96
2019-01-05T02:37:22.057Z,6.01
2019-01-05T02:38:22.034Z,6.00
2019-01-05T02:39:22.038Z,5.93
2019-01-05T02:40:22.013Z,5.97
2019-01-05T02:41:21.969Z,6.00
2019-01-05T02:42:21.949Z,6.00
2019-01-05T02:43:21.928Z,6.01
2019-01-05T02:44:21.910Z,6.08
2019-01-05T02:45:21.898Z,5.96
2019-01-05T02:46:21.879Z,6.08
2019-01-05T02:47:21.838Z,6.01
2019-01-05T02:48:21.824Z,6.09
2019-01-05T02:49:21.892Z,6.14
2019-01-05T02:50:21.791Z,6.04
2019-01-05T02:51:21.747Z,6.11
2019-01-05T02:52:21.735Z,6.00
2019-01-05T02:53:21.706Z,6.04
2019-01-05T02:54:21.684Z,6.17
2019-01-05T02:55:22.691Z,6.03
2019-01-05T02:56:21.643Z,6.06
2019-01-05T02:57:21.645Z,6.11
2019-01-05T02:58:22.691Z,6.04
2019-01-05T02:59:21.580Z,6.06
2019-01-05T03:00:21.552Z,6.09
2019-01-05T03:01:21.529Z,6.14
2019-01-05T03:02:21.510Z,6.14
2019-01-05T03:03:21.505Z,6.06
2019-01-05T03:04:21.473Z,6.11
2019-01-05T03:05:21.460Z,6.11
2019-01-05T03:06:21.426Z,6.09
2019-01-05T03:07:21.421Z,6.14
2019-01-05T03:08:21.384Z,6.08
2019-01-05T03:09:21.360Z,6.12
2019-01-05T03:10:21.337Z,6.11
2019-01-05T03:11:21.315Z,6.11
2019-01-05T03:12:21.292Z,6.12
2019-01-05T03:13:21.287Z,6.12
2019-01-05T03:14:21.264Z,6.17
2019-01-05T03:15:21.231Z,6.17
2019-01-05T03:16:21.207Z,6.15
2019-01-05T03:17:21.193Z,6.14
2019-01-05T03:18:21.183Z,6.18
2019-01-05T03:19:21.156Z,6.25
2019-01-05T03:20:21.125Z,6.22
2019-01-05T03:21:21.107Z,6.25
2019-01-05T03:22:21.086Z,6.22
2019-01-05T03:23:21.074Z,6.25
2019-01-05T03:24:21.041Z,6.27
2019-01-05T03:25:21.041Z,6.25
2019-01-05T03:26:21.001Z,6.27
2019-01-05T03:27:20.974Z,6.28
2019-01-05T03:28:20.948Z,6.30
2019-01-05T03:29:20.969Z,6.33
2019-01-05T03:30:20.906Z,6.27
2019-01-05T03:31:20.904Z,6.31
2019-01-05T03:32:20.862Z,6.31
2019-01-05T03:33:20.859Z,6.30
2019-01-05T03:34:20.829Z,6.34
2019-01-05T03:35:20.802Z,6.30
2019-01-05T03:36:20.791Z,6.34
2019-01-05T03:37:20.766Z,6.30
2019-01-05T03:38:20.755Z,6.25
2019-01-05T03:39:20.713Z,6.28
2019-01-05T03:40:20.689Z,6.22
2019-01-05T03:41:20.668Z,6.37
2019-01-05T03:42:20.646Z,6.30
2019-01-05T03:43:20.623Z,6.28
2019-01-05T03:44:20.625Z,6.30
2019-01-05T03:45:20.583Z,6.34
2019-01-05T03:46:20.557Z,6.34
2019-01-05T03:47:20.535Z,6.41
2019-01-05T03:48:20.523Z,6.36
2019-01-05T03:49:20.522Z,6.33
2019-01-05T03:50:20.471Z,6.54
2019-01-05T03:51:20.459Z,6.49
2019-01-05T03:52:20.426Z,6.49
2019-01-05T03:53:20.412Z,6.48
2019-01-05T03:54:20.386Z,6.51
2019-01-05T03:55:20.379Z,6.54
2019-01-05T03:56:20.346Z,6.54
2019-01-05T03:57:20.318Z,6.54
2019-01-05T03:58:20.300Z,6.49
2019-01-05T03:59:20.278Z,6.49
2019-01-05T04:00:20.274Z,6.46
2019-01-05T04:01:20.259Z,6.48
2019-01-05T04:02:20.215Z,6.48
2019-01-05T04:03:20.211Z,6.54
2019-01-05T04:04:20.169Z,6.46
2019-01-05T04:05:20.146Z,6.48
2019-01-05T04:06:20.132Z,6.49
2019-01-05T04:07:20.122Z,6.46
2019-01-05T04:08:20.087Z,6.49
2019-01-05T04:09:20.083Z,6.55
2019-01-05T04:10:20.047Z,6.52
2019-01-05T04:11:20.023Z,6.52
2019-01-05T04:12:20.019Z,6.51
2019-01-05T04:13:19.981Z,6.56
2019-01-05T04:14:19.959Z,6.54
2019-01-05T04:15:19.933Z,6.55
2019-01-05T04:16:19.922Z,6.67
2019-01-05T04:17:19.901Z,6.61
2019-01-05T04:18:19.891Z,6.59
2019-01-05T04:19:19.869Z,6.59
2019-01-05T04:20:19.825Z,6.55
2019-01-05T04:21:19.809Z,6.55
2019-01-05T04:22:19.790Z,6.59
2019-01-05T04:23:19.785Z,6.56
2019-01-05T04:24:19.743Z,6.58
2019-01-05T04:25:19.731Z,6.61
2019-01-05T04:26:19.700Z,6.56
2019-01-05T04:27:19.680Z,6.58
2019-01-05T04:28:20.461Z,6.61
2019-01-05T04:29:19.663Z,6.58
2019-01-05T04:30:19.615Z,6.62
2019-01-05T04:31:19.603Z,6.67
2019-01-05T04:32:19.578Z,6.71
2019-01-05T04:33:19.554Z,6.70
2019-01-05T04:34:19.540Z,6.67
2019-01-05T04:35:19.538Z,6.64
2019-01-05T04:36:19.488Z,6.70
2019-01-05T04:37:19.508Z,6.67
2019-01-05T04:38:19.455Z,6.66
2019-01-05T04:39:19.419Z,6.74
2019-01-05T04:40:19.420Z,6.74
2019-01-05T04:41:19.377Z,6.73
2019-01-05T04:42:19.356Z,6.84
2019-01-05T04:43:19.337Z,6.79
2019-01-05T04:44:19.331Z,6.71
2019-01-05T04:45:19.327Z,6.76
2019-01-05T04:46:19.299Z,6.71
2019-01-05T04:47:19.248Z,6.79
2019-01-05T04:48:19.290Z,6.76
2019-01-05T04:49:19.209Z,6.77
2019-01-05T04:50:19.198Z,6.79
2019-01-05T04:51:19.180Z,6.71
2019-01-05T04:52:19.144Z,6.77
2019-01-05T04:53:19.120Z,6.73
2019-01-05T04:54:19.107Z,6.77
2019-01-05T04:55:19.102Z,6.76
2019-01-05T04:56:19.091Z,6.74
2019-01-05T04:57:19.037Z,6.74
2019-01-05T04:58:19.024Z,6.81
2019-01-05T04:59:19.017Z,6.77
2019-01-05T05:00:18.978Z,6.76
2019-01-05T05:01:19.739Z,6.79
2019-01-05T05:02:18.947Z,6.79
2019-01-05T05:03:18.907Z,6.79
2019-01-05T05:04:18.903Z,6.80
2019-01-05T05:05:18.866Z,6.79
2019-01-05T05:06:18.866Z,6.74
2019-01-05T05:07:18.844Z,6.74
2019-01-05T05:08:18.802Z,6.79
2019-01-05T05:09:18.798Z,6.79
2019-01-05T05:10:18.765Z,6.79
2019-01-05T05:11:18.742Z,6.84
2019-01-05T05:12:18.734Z,6.80
2019-01-05T05:13:18.718Z,6.81
2019-01-05T05:14:18.684Z,6.79
2019-01-05T05:15:18.651Z,6.84
2019-01-05T05:16:18.635Z,6.80
2019-01-05T05:17:18.611Z,6.79
2019-01-05T05:18:18.592Z,6.91
2019-01-05T05:19:18.588Z,6.81
2019-01-05T05:20:18.565Z,6.85
2019-01-05T05:21:18.526Z,6.85
2019-01-05T05:22:18.505Z,6.89
2019-01-05T05:23:18.491Z,6.77
2019-01-05T05:24:18.462Z,6.85
2019-01-05T05:25:18.457Z,6.91
2019-01-05T05:26:18.421Z,6.91
2019-01-05T05:27:18.396Z,6.85
2019-01-05T05:28:19.214Z,6.84
2019-01-05T05:29:18.356Z,6.87
2019-01-05T05:30:18.338Z,6.94
2019-01-05T05:31:18.328Z,6.95
2019-01-05T05:32:18.290Z,6.94
2019-01-05T05:33:18.279Z,6.92
2019-01-05T05:34:18.249Z,6.91
2019-01-05T05:35:18.227Z,6.94
2019-01-05T05:36:18.221Z,6.99
2019-01-05T05:37:18.189Z,6.98
2019-01-05T05:38:18.181Z,6.99
2019-01-05T05:39:18.144Z,6.99
2019-01-05T05:40:18.117Z,6.99
2019-01-05T05:41:18.095Z,7.02
2019-01-05T05:42:18.081Z,7.05
2019-01-05T05:43:18.052Z,6.97
2019-01-05T05:44:18.046Z,6.97
2019-01-05T05:45:18.013Z,6.98
2019-01-05T05:46:17.994Z,7.03
2019-01-05T05:47:17.967Z,7.05
2019-01-05T05:48:17.951Z,7.07
2019-01-05T05:49:17.943Z,7.07
2019-01-05T05:50:17.904Z,7.12
2019-01-05T05:51:17.887Z,7.06
2019-01-05T05:52:17.864Z,7.05
2019-01-05T05:53:17.845Z,7.10
2019-01-05T05:54:17.821Z,7.13
2019-01-05T05:55:17.815Z,7.02
2019-01-05T05:56:17.783Z,7.12
2019-01-05T05:57:17.758Z,7.17
2019-01-05T05:58:17.738Z,7.12
2019-01-05T05:59:17.724Z,7.12
2019-01-05T06:00:17.724Z,7.15
2019-01-05T06:01:17.724Z,7.06
2019-01-05T06:02:17.653Z,7.15
2019-01-05T06:03:17.639Z,7.16
2019-01-05T06:04:17.612Z,7.12
2019-01-05T06:05:17.594Z,7.13
2019-01-05T06:06:17.592Z,7.23
2019-01-05T06:07:17.543Z,7.20
2019-01-05T06:08:17.539Z,7.21
2019-01-05T06:09:17.519Z,7.23
2019-01-05T06:10:17.486Z,7.21
2019-01-05T06:11:17.460Z,7.23
2019-01-05T06:12:17.440Z,7.24
2019-01-05T06:13:17.421Z,7.30
2019-01-05T06:14:17.419Z,7.28
2019-01-05T06:15:17.381Z,7.30
2019-01-05T06:16:17.357Z,7.30
2019-01-05T06:17:17.334Z,7.31
2019-01-05T06:18:17.336Z,7.34
2019-01-05T06:19:17.307Z,7.32
2019-01-05T06:20:17.272Z,7.31
2019-01-05T06:21:17.273Z,7.30
2019-01-05T06:22:17.231Z,7.35
2019-01-05T06:23:17.231Z,7.30
2019-01-05T06:24:17.196Z,7.42
2019-01-05T06:25:17.167Z,7.39
2019-01-05T06:26:17.147Z,7.48
2019-01-05T06:27:17.133Z,7.39
2019-01-05T06:28:17.099Z,7.42
2019-01-05T06:29:17.098Z,7.42
2019-01-05T06:30:17.061Z,7.39
2019-01-05T06:31:17.038Z,7.39
2019-01-05T06:32:17.021Z,7.39
2019-01-05T06:33:17.102Z,7.43
2019-01-05T06:34:17.091Z,7.46
2019-01-05T06:35:17.319Z,7.46
2019-01-05T06:36:16.951Z,7.50
2019-01-05T06:37:17.111Z,7.48
2019-01-05T06:38:16.910Z,7.53
2019-01-05T06:39:17.063Z,7.52
2019-01-05T06:40:17.718Z,7.45
2019-01-05T06:41:16.850Z,7.50
2019-01-05T06:42:16.810Z,7.52
2019-01-05T06:43:16.788Z,7.48
2019-01-05T06:44:16.774Z,7.48
2019-01-05T06:45:16.753Z,7.46
2019-01-05T06:46:16.741Z,7.40
2019-01-05T06:47:16.737Z,7.49
2019-01-05T06:48:16.683Z,7.50
2019-01-05T06:49:16.671Z,7.48
2019-01-05T06:50:16.652Z,7.53
2019-01-05T06:51:16.623Z,7.53
2019-01-05T06:52:16.599Z,7.50
2019-01-05T06:53:16.596Z,7.53
2019-01-05T06:54:16.565Z,7.49
2019-01-05T06:55:16.543Z,7.50
2019-01-05T06:56:16.515Z,7.53
2019-01-05T06:57:16.500Z,7.50
2019-01-05T06:58:16.507Z,7.46
2019-01-05T06:59:16.461Z,7.50
2019-01-05T07:00:16.433Z,7.49
2019-01-05T07:01:16.418Z,7.50
2019-01-05T07:02:16.413Z,7.52
2019-01-05T07:03:16.371Z,7.53
2019-01-05T07:04:16.381Z,7.49
2019-01-05T07:05:16.337Z,7.49
2019-01-05T07:06:16.304Z,7.46
2019-01-05T07:07:16.286Z,7.39
2019-01-05T07:08:16.271Z,7.42
2019-01-05T07:09:16.245Z,7.49
2019-01-05T07:10:16.243Z,7.55
2019-01-05T07:11:16.200Z,7.40
2019-01-05T07:12:16.183Z,7.50
2019-01-05T07:13:16.174Z,7.50
2019-01-05T07:14:16.139Z,7.45
2019-01-05T07:15:16.139Z,7.52
2019-01-05T07:16:16.112Z,7.48
2019-01-05T07:17:16.091Z,7.55
2019-01-05T07:18:16.081Z,7.50
2019-01-05T07:19:16.070Z,7.45
2019-01-05T07:20:16.017Z,7.46
2019-01-05T07:21:16.024Z,7.52
2019-01-05T07:22:15.970Z,7.50
2019-01-05T07:23:15.949Z,7.48
2019-01-05T07:24:15.931Z,7.57
2019-01-05T07:25:15.920Z,7.52
2019-01-05T07:26:15.889Z,7.53
2019-01-05T07:27:15.896Z,7.50
2019-01-05T07:28:15.846Z,7.58
2019-01-05T07:29:15.822Z,7.45
2019-01-05T07:30:15.802Z,7.49
2019-01-05T07:31:15.784Z,7.49
2019-01-05T07:32:15.763Z,7.55
2019-01-05T07:33:15.762Z,7.60
2019-01-05T07:34:16.264Z,7.61
2019-01-05T07:35:15.697Z,7.58
2019-01-05T07:36:15.689Z,7.58
2019-01-05T07:37:15.660Z,7.53
2019-01-05T07:38:15.660Z,7.53
2019-01-05T07:39:16.328Z,7.52
2019-01-05T07:40:15.596Z,7.55
2019-01-05T07:41:15.574Z,7.55
2019-01-05T07:42:15.553Z,7.52
2019-01-05T07:43:15.542Z,7.58
2019-01-05T07:44:15.550Z,7.63
2019-01-05T07:45:15.490Z,7.55
2019-01-05T07:46:15.495Z,7.61
2019-01-05T07:47:15.450Z,7.61
2019-01-05T07:48:15.428Z,7.55
2019-01-05T07:49:15.404Z,7.57
2019-01-05T07:50:15.401Z,7.58
2019-01-05T07:51:15.384Z,7.60
2019-01-05T07:52:15.346Z,7.55
2019-01-05T07:53:15.326Z,7.60
2019-01-05T07:54:15.311Z,7.60
2019-01-05T07:55:15.283Z,7.60
2019-01-05T07:56:15.260Z,7.60
2019-01-05T07:57:15.260Z,7.63
2019-01-05T07:58:15.227Z,7.60
2019-01-05T07:59:15.200Z,7.60
2019-01-05T08:00:15.180Z,7.58
2019-01-05T08:01:15.164Z,7.50
2019-01-05T08:02:15.146Z,7.57
2019-01-05T08:03:15.137Z,7.60
2019-01-05T08:04:15.115Z,7.60
2019-01-05T08:05:15.083Z,7.63
2019-01-05T08:06:16.009Z,7.61
2019-01-05T08:07:15.046Z,7.58
2019-01-05T08:08:15.022Z,7.58
2019-01-05T08:09:14.997Z,7.53
2019-01-05T08:10:14.994Z,7.53
2019-01-05T08:11:14.969Z,7.61
2019-01-05T08:12:14.927Z,7.61
2019-01-05T08:13:14.908Z,7.53
2019-01-05T08:14:14.889Z,7.57
2019-01-05T08:15:14.886Z,7.57
2019-01-05T08:16:14.847Z,7.58
2019-01-05T08:17:14.830Z,7.58
2019-01-05T08:18:14.804Z,7.52
2019-01-05T08:19:14.785Z,7.61
2019-01-05T08:20:14.778Z,7.53
2019-01-05T08:21:14.743Z,7.63
2019-01-05T08:22:14.743Z,7.55
2019-01-05T08:23:14.701Z,7.61
2019-01-05T08:24:14.700Z,7.61
2019-01-05T08:25:14.656Z,7.67
2019-01-05T08:26:14.640Z,7.64
2019-01-05T08:27:14.626Z,7.61
2019-01-05T08:28:14.598Z,7.63
2019-01-05T08:29:14.578Z,7.71
2019-01-05T08:30:14.580Z,7.61
2019-01-05T08:31:14.537Z,7.64
2019-01-05T08:32:14.514Z,7.67
2019-01-05T08:33:14.494Z,7.60
2019-01-05T08:34:14.473Z,7.67
2019-01-05T08:35:14.467Z,7.68
2019-01-05T08:36:14.437Z,7.67
2019-01-05T08:37:14.410Z,7.61
2019-01-05T08:38:14.391Z,7.64
2019-01-05T08:39:14.374Z,7.55
2019-01-05T08:40:14.365Z,7.61
2019-01-05T08:41:14.366Z,7.67
2019-01-05T08:42:14.305Z,7.61
2019-01-05T08:43:14.279Z,7.68
2019-01-05T08:44:14.278Z,7.61
2019-01-05T08:45:14.263Z,7.61
2019-01-05T08:46:14.238Z,7.61
2019-01-05T08:47:14.216Z,7.69
2019-01-05T08:48:14.183Z,7.61
2019-01-05T08:49:14.183Z,7.63
2019-01-05T08:50:14.163Z,7.67
2019-01-05T08:51:14.136Z,7.63
2019-01-05T08:52:14.096Z,7.61
2019-01-05T08:53:14.094Z,7.61
2019-01-05T08:54:14.102Z,7.61
2019-01-05T08:55:14.038Z,7.61
2019-01-05T08:56:14.013Z,7.60
2019-01-05T08:57:13.994Z,7.61
2019-01-05T08:58:13.974Z,7.64
2019-01-05T08:59:13.966Z,7.61
2019-01-05T09:00:13.959Z,7.57
2019-01-05T09:01:13.913Z,7.64
2019-01-05T09:02:13.923Z,7.58
2019-01-05T09:03:13.868Z,7.63
2019-01-05T09:04:13.856Z,7.61
2019-01-05T09:05:13.847Z,7.63
2019-01-05T09:06:13.804Z,7.55
2019-01-05T09:07:13.794Z,7.57
2019-01-05T09:08:13.800Z,7.61
2019-01-05T09:09:13.747Z,7.53
2019-01-05T09:10:13.744Z,7.50
2019-01-05T09:11:13.707Z,7.63
2019-01-05T09:12:13.688Z,7.57
2019-01-05T09:13:13.674Z,7.61
2019-01-05T09:14:13.643Z,7.58
2019-01-05T09:15:13.639Z,7.52
2019-01-05T09:16:13.602Z,7.57
2019-01-05T09:17:13.605Z,7.52
2019-01-05T09:18:13.563Z,7.49
2019-01-05T09:19:13.543Z,7.50
2019-01-05T09:20:13.522Z,7.50
2019-01-05T09:21:13.518Z,7.55
2019-01-05T09:22:13.478Z,7.52
2019-01-05T09:23:13.455Z,7.52
2019-01-05T09:24:13.444Z,7.52
2019-01-05T09:25:13.411Z,7.50
2019-01-05T09:26:13.393Z,7.53
2019-01-05T09:27:13.386Z,7.48
2019-01-05T09:28:13.374Z,7.49
2019-01-05T09:29:13.333Z,7.53
2019-01-05T09:30:13.314Z,7.46
2019-01-05T09:31:13.300Z,7.48
2019-01-05T09:32:13.286Z,7.50
2019-01-05T09:33:13.252Z,7.58
2019-01-05T09:34:13.222Z,7.52
2019-01-05T09:35:13.203Z,7.52
2019-01-05T09:36:13.181Z,7.50
2019-01-05T09:37:13.193Z,7.48
2019-01-05T09:38:13.146Z,7.48
2019-01-05T09:39:13.174Z,7.45
2019-01-05T09:40:13.103Z,7.42
2019-01-05T09:41:13.084Z,7.49
2019-01-05T09:42:13.059Z,7.46
2019-01-05T09:43:13.055Z,7.52
2019-01-05T09:44:13.014Z,7.48
2019-01-05T09:45:13.018Z,7.50
2019-01-05T09:46:12.979Z,7.49
2019-01-05T09:47:12.959Z,7.53
2019-01-05T09:48:12.946Z,7.46
2019-01-05T09:49:12.915Z,7.48
2019-01-05T09:50:12.914Z,7.49
2019-01-05T09:51:12.877Z,7.52
2019-01-05T09:52:12.887Z,7.55
2019-01-05T09:53:12.833Z,7.53
2019-01-05T09:54:12.840Z,7.60
2019-01-05T09:55:12.791Z,7.50
2019-01-05T09:56:12.775Z,7.53
2019-01-05T09:57:12.773Z,7.60
2019-01-05T09:58:12.732Z,7.55
2019-01-05T09:59:12.708Z,7.57
2019-01-05T10:00:12.682Z,7.58
2019-01-05T10:01:12.657Z,7.61
2019-01-05T10:02:12.643Z,7.53
2019-01-05T10:03:12.640Z,7.61
2019-01-05T10:04:12.601Z,7.61
2019-01-05T10:05:12.595Z,7.60
2019-01-05T10:06:12.561Z,7.60
2019-01-05T10:07:12.538Z,7.64
2019-01-05T10:08:12.524Z,7.50
2019-01-05T10:09:12.515Z,7.58
2019-01-05T10:10:12.512Z,7.52
2019-01-05T10:11:12.460Z,7.55
2019-01-05T10:12:12.437Z,7.58
2019-01-05T10:13:12.420Z,7.53
2019-01-05T10:14:12.394Z,7.58
2019-01-05T10:15:12.392Z,7.57
2019-01-05T10:16:12.353Z,7.55
2019-01-05T10:17:12.335Z,7.64
2019-01-05T10:18:12.309Z,7.58
2019-01-05T10:19:12.326Z,7.67
2019-01-05T10:20:12.268Z,7.63
2019-01-05T10:21:12.270Z,7.63
2019-01-05T10:22:12.234Z,7.58
2019-01-05T10:23:12.207Z,7.60
2019-01-05T10:24:12.197Z,7.64
2019-01-05T10:25:12.166Z,7.64
2019-01-05T10:26:12.178Z,7.53
2019-01-05T10:27:12.123Z,7.60
2019-01-05T10:28:12.108Z,7.61
2019-01-05T10:29:12.097Z,7.58
2019-01-05T10:30:12.066Z,7.64
2019-01-05T10:31:12.040Z,7.69
2019-01-05T10:32:12.039Z,7.61
2019-01-05T10:33:12.008Z,7.61
2019-01-05T10:34:11.986Z,7.67
2019-01-05T10:35:11.978Z,7.71
2019-01-05T10:36:11.943Z,7.61
2019-01-05T10:37:11.928Z,7.60
2019-01-05T10:38:11.917Z,7.63
2019-01-05T10:39:11.886Z,7.68
2019-01-05T10:40:11.868Z,7.67
2019-01-05T10:41:11.835Z,7.64
2019-01-05T10:42:11.819Z,7.64
2019-01-05T10:43:11.800Z,7.64
2019-01-05T10:44:11.792Z,7.74
2019-01-05T10:45:11.757Z,7.71
2019-01-05T10:46:11.742Z,7.71
2019-01-05T10:47:11.714Z,7.74
2019-01-05T10:48:11.695Z,7.64
2019-01-05T10:49:11.700Z,7.68
2019-01-05T10:50:11.675Z,7.71
2019-01-05T10:51:11.653Z,7.72
2019-01-05T10:52:11.617Z,7.58
2019-01-05T10:53:11.596Z,7.72
2019-01-05T10:54:11.577Z,7.71
2019-01-05T10:55:11.582Z,7.68
2019-01-05T10:56:11.535Z,7.63
2019-01-05T10:57:11.513Z,7.75
2019-01-05T10:58:11.490Z,7.61
2019-01-05T10:59:11.468Z,7.72
2019-01-05T11:00:11.448Z,7.61
2019-01-05T11:01:11.461Z,7.60
2019-01-05T11:02:11.431Z,7.64
2019-01-05T11:03:11.388Z,7.68
2019-01-05T11:04:11.375Z,7.71
2019-01-05T11:05:11.340Z,7.60
2019-01-05T11:06:11.328Z,7.71
2019-01-05T11:07:11.312Z,7.72
2019-01-05T11:08:11.308Z,7.75
2019-01-05T11:09:11.275Z,7.74
2019-01-05T11:10:11.245Z,7.74
2019-01-05T11:11:11.220Z,7.69
2019-01-05T11:12:11.220Z,7.71
2019-01-05T11:13:11.177Z,7.77
2019-01-05T11:14:11.187Z,7.74
2019-01-05T11:15:11.139Z,7.82
2019-01-05T11:16:11.123Z,7.86
2019-01-05T11:17:11.097Z,7.85
2019-01-05T11:18:11.082Z,7.83
2019-01-05T11:19:11.056Z,7.89
2019-01-05T11:20:11.057Z,7.82
2019-01-05T11:21:11.023Z,7.85
2019-01-05T11:22:11.000Z,7.85
2019-01-05T11:23:10.973Z,7.90
2019-01-05T11:24:10.966Z,7.86
2019-01-05T11:25:10.949Z,8.04
2019-01-05T11:26:10.914Z,7.97
2019-01-05T11:27:10.889Z,7.90
2019-01-05T11:28:10.895Z,8.00
2019-01-05T11:29:10.853Z,8.05
2019-01-05T11:30:10.844Z,7.95
2019-01-05T11:31:10.835Z,8.05
2019-01-05T11:32:10.793Z,8.02
2019-01-05T11:33:10.773Z,8.04
2019-01-05T11:34:10.747Z,8.02
2019-01-05T11:35:10.729Z,7.98
2019-01-05T11:36:10.726Z,8.00
2019-01-05T11:37:10.695Z,7.95
2019-01-05T11:38:10.669Z,7.95
2019-01-05T11:39:10.647Z,7.92
2019-01-05T11:40:10.660Z,7.92
2019-01-05T11:41:10.611Z,7.85
2019-01-05T11:42:10.586Z,7.89
2019-01-05T11:43:10.567Z,7.98
2019-01-05T11:44:10.555Z,7.89
2019-01-05T11:45:10.526Z,8.00
2019-01-05T11:46:10.530Z,8.00
2019-01-05T11:47:10.505Z,7.85
2019-01-05T11:48:10.463Z,7.89
2019-01-05T11:49:10.442Z,7.98
2019-01-05T11:50:10.427Z,7.86
2019-01-05T11:51:10.420Z,7.97
2019-01-05T11:52:10.382Z,8.01
2019-01-05T11:53:10.381Z,7.87
2019-01-05T11:54:10.342Z,7.87
2019-01-05T11:55:10.325Z,7.95
2019-01-05T11:56:10.339Z,7.89
2019-01-05T11:57:10.292Z,7.93
2019-01-05T11:58:10.276Z,8.00
2019-01-05T11:59:10.255Z,7.97
2019-01-05T12:00:10.224Z,8.01
2019-01-05T12:01:10.233Z,7.95
2019-01-05T12:02:10.200Z,7.98
2019-01-05T12:03:10.181Z,8.00
2019-01-05T12:04:10.139Z,7.97
2019-01-05T12:05:10.123Z,7.89
2019-01-05T12:06:10.113Z,7.83
2019-01-05T12:07:10.085Z,7.98
2019-01-05T12:08:10.079Z,8.00
2019-01-05T12:09:10.045Z,8.00
2019-01-05T12:10:10.028Z,8.05
2019-01-05T12:11:09.995Z,8.05
2019-01-05T12:12:09.986Z,8.08
2019-01-05T12:13:09.954Z,8.01
2019-01-05T12:14:09.957Z,8.04
2019-01-05T12:15:09.917Z,7.95
2019-01-05T12:16:09.896Z,8.02
2019-01-05T12:17:09.877Z,8.08
2019-01-05T12:18:09.853Z,8.04
2019-01-05T12:19:09.850Z,7.97
2019-01-05T12:20:09.844Z,8.01
2019-01-05T12:21:09.797Z,8.11
2019-01-05T12:22:09.779Z,8.07
2019-01-05T12:23:09.753Z,8.04
2019-01-05T12:24:09.729Z,8.05
2019-01-05T12:25:09.731Z,8.08
2019-01-05T12:26:09.694Z,8.01
2019-01-05T12:27:09.674Z,8.07
2019-01-05T12:28:09.655Z,7.98
2019-01-05T12:29:09.625Z,8.00
2019-01-05T12:30:09.612Z,7.98
2019-01-05T12:31:09.606Z,8.00
2019-01-05T12:32:09.574Z,7.87
2019-01-05T12:33:09.552Z,7.98
2019-01-05T12:34:09.539Z,7.85
2019-01-05T12:35:09.518Z,8.00
2019-01-05T12:36:09.886Z,7.93
2019-01-05T12:37:09.498Z,7.93
2019-01-05T12:38:09.459Z,7.89
2019-01-05T12:39:09.438Z,7.93
2019-01-05T12:40:09.414Z,7.95
2019-01-05T12:41:09.402Z,7.93
2019-01-05T12:43:51.738Z,7.90
2019-01-05T12:44:51.753Z,7.98
2019-01-05T12:45:51.712Z,7.92
2019-01-05T12:46:51.677Z,8.01
2019-01-05T12:47:51.687Z,7.89
2019-01-05T12:48:51.641Z,7.86
2019-01-05T12:49:51.636Z,7.97
2019-01-05T12:50:51.596Z,7.90
2019-01-05T12:51:51.569Z,7.93
2019-01-05T12:52:51.567Z,7.90
2019-01-05T12:53:51.769Z,7.95
2019-01-05T12:54:51.508Z,7.89
2019-01-05T12:55:51.496Z,8.02
2019-01-05T12:58:33.759Z,7.89
2019-01-05T12:59:33.714Z,7.90
2019-01-05T13:00:33.700Z,7.98
2019-01-05T13:01:33.683Z,8.00
2019-01-05T13:02:33.678Z,8.04
2019-01-05T13:03:33.654Z,8.01
2019-01-05T13:04:33.627Z,8.00
2019-01-05T13:05:33.605Z,8.01
2019-01-05T13:06:33.592Z,7.98
2019-01-05T13:07:33.560Z,8.07
2019-01-05T13:08:33.531Z,8.04
2019-01-05T13:09:33.512Z,8.08
2019-01-05T13:10:33.491Z,8.01
2019-01-05T13:11:33.485Z,8.04
2019-01-05T13:12:33.476Z,8.00
2019-01-05T13:13:33.434Z,8.01
2019-01-05T13:14:33.412Z,8.15
2019-01-05T13:17:15.762Z,8.04
2019-01-05T13:18:15.746Z,8.08
2019-01-05T13:19:15.717Z,8.20
2019-01-05T13:20:15.676Z,8.25
2019-01-05T13:21:15.690Z,8.18
2019-01-05T13:22:15.657Z,8.11
2019-01-05T13:23:15.628Z,8.15
2019-01-05T13:24:15.600Z,8.18
2019-01-05T13:25:15.572Z,8.11
2019-01-05T13:26:15.560Z,8.04